createdAt,value
2022-11-20T00:01:33.830Z,43.10
2022-11-20T00:04:02.121Z,41.03
2022-11-20T00:06:30.200Z,40.47
2022-11-20T00:09:01.396Z,40.30
2022-11-20T00:11:31.132Z,43.30
2022-11-20T00:14:01.419Z,39.20
2022-11-20T00:16:32.568Z,40.07
2022-11-20T00:19:00.223Z,45.37
2022-11-20T00:21:29.862Z,43.33
2022-11-20T00:23:58.540Z,39.23
2022-11-20T00:26:28.246Z,44.63
2022-11-20T00:28:59.383Z,47.33
2022-11-20T00:31:27.626Z,48.43
2022-11-20T00:33:55.185Z,45.07
2022-11-20T00:36:26.356Z,48.93
2022-11-20T00:38:56.801Z,48.47
2022-11-20T00:41:25.603Z,46.30
2022-11-20T00:43:54.905Z,43.07
2022-11-20T00:46:26.636Z,51.83
2022-11-20T00:48:54.325Z,49.90
2022-11-20T00:51:26.353Z,49.50
2022-11-20T00:53:58.052Z,53.53
2022-11-20T00:56:25.352Z,51.57
2022-11-20T00:58:52.848Z,51.70
2022-11-20T01:01:26.388Z,52.03
2022-11-20T01:03:56.928Z,54.93
2022-11-20T01:06:30.532Z,58.07
2022-11-20T01:09:02.558Z,56.60
2022-11-20T01:11:33.634Z,51.17
2022-11-20T01:14:03.821Z,54.83
2022-11-20T01:16:36.663Z,55.60
2022-11-20T01:19:08.549Z,53.60
2022-11-20T01:21:39.710Z,53.63
2022-11-20T01:24:12.299Z,53.20
2022-11-20T01:26:42.210Z,50.03
2022-11-20T01:29:29.926Z,55.30
2022-11-20T01:31:57.161Z,52.93
2022-11-20T01:34:24.823Z,61.93
2022-11-20T01:36:53.951Z,62.30
2022-11-20T01:39:27.423Z,57.70
2022-11-20T01:42:15.265Z,56.57
2022-11-20T01:44:58.940Z,59.77
2022-11-20T01:47:40.729Z,55.47
2022-11-20T01:50:29.970Z,54.63
2022-11-20T01:53:09.593Z,51.83
2022-11-20T01:55:44.926Z,61.20
2022-11-20T01:58:13.950Z,58.50
2022-11-20T02:00:42.173Z,57.43
2022-11-20T02:03:16.686Z,60.73
2022-11-20T02:06:00.416Z,58.40
2022-11-20T02:08:29.997Z,60.83
2022-11-20T02:10:57.739Z,56.07
2022-11-20T02:13:57.522Z,60.13
2022-11-20T02:16:40.350Z,63.43
2022-11-20T02:19:24.578Z,62.07
2022-11-20T02:22:38.324Z,63.43
2022-11-20T02:25:09.036Z,61.73
2022-11-20T02:27:37.381Z,55.97
2022-11-20T02:30:09.014Z,53.23
2022-11-20T02:32:39.260Z,59.77
2022-11-20T02:35:21.456Z,53.10
2022-11-20T02:37:53.937Z,55.23
2022-11-20T02:40:21.240Z,54.17
2022-11-20T02:42:49.124Z,56.90
2022-11-20T02:45:16.284Z,57.07
2022-11-20T02:47:43.766Z,58.40
2022-11-20T02:50:11.505Z,60.63
2022-11-20T02:52:39.042Z,59.70
2022-11-20T02:55:07.118Z,61.10
2022-11-20T02:57:34.774Z,62.83
2022-11-20T03:00:02.396Z,60.77
2022-11-20T03:02:34.010Z,60.83
2022-11-20T03:05:01.268Z,56.87
2022-11-20T03:07:28.886Z,55.73
2022-11-20T03:09:56.213Z,55.40
2022-11-20T03:12:23.664Z,54.70
2022-11-20T03:14:53.299Z,53.93
2022-11-20T03:17:21.104Z,54.20
2022-11-20T03:19:48.322Z,54.63
2022-11-20T03:22:16.055Z,52.87
2022-11-20T03:24:43.304Z,56.60
2022-11-20T03:27:10.992Z,55.63
2022-11-20T03:29:38.142Z,57.30
2022-11-20T03:32:06.357Z,54.40
2022-11-20T03:34:33.569Z,56.03
2022-11-20T03:37:01.072Z,56.30
2022-11-20T03:39:28.308Z,52.10
2022-11-20T03:41:55.836Z,49.43
2022-11-20T03:44:23.403Z,44.80
2022-11-20T03:46:50.837Z,52.23
2022-11-20T03:49:18.066Z,46.80
2022-11-20T03:51:45.520Z,48.73
2022-11-20T03:54:12.681Z,52.37
2022-11-20T03:56:40.618Z,47.97
2022-11-20T03:59:08.041Z,50.17
2022-11-20T04:01:38.643Z,49.90
2022-11-20T04:04:06.954Z,51.37
2022-11-20T04:06:39.140Z,58.47
2022-11-20T04:09:07.320Z,57.27
2022-11-20T04:11:40.368Z,55.57
2022-11-20T04:14:14.426Z,53.80
2022-11-20T04:16:42.417Z,52.63
2022-11-20T04:19:16.035Z,58.10
2022-11-20T04:21:45.086Z,56.30
2022-11-20T04:24:12.603Z,48.70
2022-11-20T04:26:41.395Z,52.00
2022-11-20T04:29:12.873Z,47.37
2022-11-20T04:31:40.481Z,47.30
2022-11-20T04:34:08.830Z,52.73
2022-11-20T04:36:36.386Z,51.63
2022-11-20T04:39:07.271Z,57.80
2022-11-20T04:41:37.682Z,51.00
2022-11-20T04:44:07.289Z,50.83
2022-11-20T04:46:39.418Z,48.23
2022-11-20T04:49:07.665Z,47.43
2022-11-20T04:51:35.822Z,48.07
2022-11-20T04:54:03.318Z,53.17
2022-11-20T04:56:30.982Z,50.17
2022-11-20T04:59:02.802Z,47.30
2022-11-20T05:01:31.156Z,52.73
2022-11-20T05:03:58.418Z,46.77
2022-11-20T05:06:26.734Z,48.03
2022-11-20T05:08:53.884Z,45.07
2022-11-20T05:11:22.696Z,52.97
2022-11-20T05:13:52.347Z,48.30
2022-11-20T05:16:25.346Z,50.87
2022-11-20T05:18:55.877Z,50.07
2022-11-20T05:21:24.047Z,50.80
2022-11-20T05:23:51.279Z,55.90
2022-11-20T05:26:23.646Z,63.90
2022-11-20T05:28:52.817Z,59.37
2022-11-20T05:31:27.715Z,66.90
2022-11-20T05:33:58.229Z,58.40
2022-11-20T05:36:26.150Z,57.33
2022-11-20T05:38:58.111Z,54.97
2022-11-20T05:41:29.325Z,58.03
2022-11-20T05:43:58.952Z,53.60
2022-11-20T05:46:29.022Z,54.97
2022-11-20T05:48:58.814Z,56.47
2022-11-20T05:51:27.197Z,54.10
2022-11-20T05:53:54.617Z,57.20
2022-11-20T05:56:23.477Z,52.00
2022-11-20T05:58:51.015Z,52.07
2022-11-20T06:01:25.857Z,52.80
2022-11-20T06:03:55.281Z,49.10
2022-11-20T06:06:23.894Z,53.67
2022-11-20T06:08:51.287Z,55.77
2022-11-20T06:11:19.690Z,51.50
2022-11-20T06:13:47.932Z,50.17
2022-11-20T06:16:19.919Z,52.47
2022-11-20T06:18:48.074Z,49.50
2022-11-20T06:21:22.405Z,52.83
2022-11-20T06:23:51.547Z,53.27
2022-11-20T06:26:25.979Z,52.13
2022-11-20T06:28:54.172Z,53.33
2022-11-20T06:31:25.761Z,52.53
2022-11-20T06:33:53.999Z,52.03
2022-11-20T06:36:23.986Z,52.83
2022-11-20T06:38:51.852Z,57.83
2022-11-20T06:41:23.796Z,57.10
2022-11-20T06:43:51.434Z,52.70
2022-11-20T06:46:21.546Z,54.27
2022-11-20T06:48:50.238Z,54.73
2022-11-20T06:51:18.059Z,50.10
2022-11-20T06:53:45.419Z,53.97
2022-11-20T06:56:12.896Z,57.53
2022-11-20T06:58:40.267Z,51.73
2022-11-20T07:01:12.361Z,55.13
2022-11-20T07:03:41.233Z,55.00
2022-11-20T07:06:10.014Z,55.43
2022-11-20T07:08:37.702Z,52.33
2022-11-20T07:11:08.482Z,49.07
2022-11-20T07:13:36.021Z,55.80
2022-11-20T07:16:07.372Z,54.67
2022-11-20T07:18:34.833Z,55.87
2022-11-20T07:21:11.676Z,58.63
2022-11-20T07:23:39.376Z,54.93
2022-11-20T07:26:10.084Z,52.97
2022-11-20T07:28:38.558Z,56.07
2022-11-20T07:31:08.473Z,55.50
2022-11-20T07:33:35.708Z,61.57
2022-11-20T07:36:03.838Z,62.80
2022-11-20T07:38:31.282Z,64.63
2022-11-20T07:40:59.309Z,63.20
2022-11-20T07:43:26.829Z,63.30
2022-11-20T07:45:57.930Z,63.53
2022-11-20T07:48:26.497Z,66.10
2022-11-20T07:50:58.131Z,69.33
2022-11-20T07:53:25.962Z,70.73
2022-11-20T07:55:53.631Z,66.17
2022-11-20T07:58:22.617Z,68.23
2022-11-20T08:00:50.449Z,67.00
2022-11-20T08:03:21.833Z,69.37
2022-11-20T08:05:52.664Z,64.57
2022-11-20T08:08:19.918Z,61.80
2022-11-20T08:10:47.353Z,60.77
2022-11-20T08:13:33.150Z,61.33
2022-11-20T08:16:00.613Z,58.40
2022-11-20T08:18:32.458Z,59.67
2022-11-20T08:21:05.044Z,59.07
2022-11-20T08:23:32.578Z,57.07
2022-11-20T08:26:00.100Z,60.97
2022-11-20T08:28:27.302Z,62.73
2022-11-20T08:31:03.196Z,63.03
2022-11-20T08:33:31.167Z,62.80
2022-11-20T08:36:04.442Z,61.60
2022-11-20T08:38:33.150Z,61.13
2022-11-20T08:41:22.513Z,62.67
2022-11-20T08:43:55.497Z,61.13
2022-11-20T08:46:25.962Z,60.03
2022-11-20T08:48:53.885Z,58.13
2022-11-20T08:51:21.884Z,63.03
2022-11-20T08:53:52.031Z,62.93
2022-11-20T08:56:19.737Z,59.70
2022-11-20T08:59:18.003Z,59.00
2022-11-20T09:01:34.573Z,55.53
2022-11-20T09:04:01.775Z,57.03
2022-11-20T09:06:29.396Z,57.73
2022-11-20T09:09:00.767Z,56.97
2022-11-20T09:11:31.159Z,57.85
2022-11-20T09:13:58.544Z,52.47
2022-11-20T09:16:26.129Z,53.40
2022-11-20T09:19:07.209Z,53.47
2022-11-20T09:21:41.005Z,50.70
2022-11-20T09:24:08.469Z,50.27
2022-11-20T09:26:36.850Z,50.37
2022-11-20T09:29:04.111Z,52.28
2022-11-20T09:31:31.607Z,51.38
2022-11-20T09:33:58.865Z,50.17
2022-11-20T09:36:26.432Z,50.37
2022-11-20T09:38:53.803Z,49.23
2022-11-20T09:41:42.369Z,48.20
2022-11-20T09:44:37.009Z,49.03
2022-11-20T09:47:34.979Z,44.38
2022-11-20T09:51:16.065Z,46.33
2022-11-20T09:54:19.580Z,46.88
2022-11-20T09:57:00.538Z,49.00
2022-11-20T09:59:43.637Z,50.50
2022-11-20T10:02:25.612Z,48.40
2022-11-20T10:05:19.265Z,51.65
2022-11-20T10:08:22.728Z,53.03
2022-11-20T10:11:24.858Z,52.05
2022-11-20T10:14:30.311Z,53.40
2022-11-20T10:17:11.583Z,51.80
2022-11-20T10:20:21.066Z,53.00
2022-11-20T10:23:25.773Z,48.70
2022-11-20T10:26:13.906Z,47.07
2022-11-20T10:29:00.592Z,44.72
2022-11-20T10:31:34.530Z,47.38
2022-11-20T10:34:22.770Z,46.67
2022-11-20T10:37:06.926Z,44.00
2022-11-20T10:40:01.914Z,46.60
2022-11-20T10:42:58.531Z,48.95
2022-11-20T10:45:26.149Z,45.30
2022-11-20T10:48:13.310Z,44.97
2022-11-20T10:50:56.069Z,40.97
2022-11-20T10:53:56.926Z,46.45
2022-11-20T10:56:52.223Z,46.33
2022-11-20T10:59:32.363Z,46.72
2022-11-20T11:04:48.639Z,45.65
2022-11-20T11:07:31.726Z,44.55
2022-11-20T11:09:59.125Z,43.33
2022-11-20T11:12:30.239Z,41.67
2022-11-20T11:14:58.819Z,41.75
2022-11-20T11:17:30.651Z,40.78
2022-11-20T11:20:21.755Z,42.30
2022-11-20T11:22:59.304Z,40.72
2022-11-20T11:25:34.695Z,43.88
2022-11-20T11:28:06.253Z,42.05
2022-11-20T11:30:45.707Z,42.08
2022-11-20T11:33:31.828Z,44.25
2022-11-20T11:36:17.022Z,42.03
2022-11-20T11:38:45.395Z,46.38
2022-11-20T11:41:29.058Z,46.65
2022-11-20T11:44:37.064Z,45.90
2022-11-20T11:47:10.915Z,47.78
2022-11-20T11:49:38.601Z,48.55
2022-11-20T11:52:23.661Z,47.20
2022-11-20T11:55:07.087Z,49.17
2022-11-20T11:58:01.860Z,45.63
2022-11-20T12:00:29.813Z,46.42
2022-11-20T12:03:22.715Z,47.25
2022-11-20T12:06:02.785Z,47.38
2022-11-20T12:08:45.155Z,47.72
2022-11-20T12:11:24.258Z,45.92
2022-11-20T12:13:59.530Z,45.28
2022-11-20T12:16:27.096Z,44.53
2022-11-20T12:18:54.835Z,43.95
2022-11-20T12:21:25.545Z,44.63
2022-11-20T12:24:22.698Z,45.63
2022-11-20T12:27:54.303Z,42.03
2022-11-20T12:30:24.095Z,42.03
2022-11-20T12:33:27.067Z,42.83
2022-11-20T12:36:27.212Z,40.15
2022-11-20T12:39:12.916Z,38.85
2022-11-20T12:42:21.493Z,43.25
2022-11-20T12:45:45.210Z,41.20
2022-11-20T12:48:31.035Z,42.63
2022-11-20T12:51:33.031Z,38.80
2022-11-20T12:54:35.545Z,42.13
2022-11-20T12:57:22.916Z,43.05
2022-11-20T13:00:18.166Z,44.47
2022-11-20T13:03:46.768Z,42.75
2022-11-20T13:06:19.984Z,42.47
2022-11-20T13:08:57.809Z,42.20
2022-11-20T13:11:42.844Z,43.13
2022-11-20T13:14:28.011Z,41.10
2022-11-20T13:17:29.755Z,43.78
2022-11-20T13:20:01.822Z,41.05
2022-11-20T13:22:52.834Z,43.92
2022-11-20T13:25:39.140Z,44.63
2022-11-20T13:28:31.216Z,41.55
2022-11-20T13:31:00.133Z,44.53
2022-11-20T13:33:38.550Z,43.42
2022-11-20T13:36:24.173Z,47.10
2022-11-20T13:38:57.420Z,46.65
2022-11-20T13:41:36.524Z,45.97
2022-11-20T13:44:11.365Z,48.42
2022-11-20T13:46:45.648Z,49.83
2022-11-20T13:49:45.852Z,49.03
2022-11-20T13:52:51.959Z,51.38
2022-11-20T13:55:55.548Z,47.80
2022-11-20T13:58:45.093Z,56.28
2022-11-20T14:01:24.098Z,50.60
2022-11-20T14:04:09.361Z,56.28
2022-11-20T14:06:47.687Z,52.00
2022-11-20T14:09:27.743Z,53.90
2022-11-20T14:11:55.095Z,49.30
2022-11-20T14:14:26.994Z,45.25
2022-11-20T14:17:21.590Z,49.95
2022-11-20T14:19:52.288Z,48.97
2022-11-20T14:22:28.906Z,50.05
2022-11-20T14:25:28.236Z,48.58
2022-11-20T14:28:04.120Z,54.75
2022-11-20T14:30:47.661Z,53.40
2022-11-20T14:33:16.358Z,54.53
2022-11-20T14:35:55.486Z,52.83
2022-11-20T14:38:30.344Z,52.90
2022-11-20T14:41:18.965Z,52.95
2022-11-20T14:43:59.822Z,52.60
2022-11-20T14:46:28.791Z,46.78
2022-11-20T14:49:01.337Z,41.70
2022-11-20T14:51:44.016Z,49.30
2022-11-20T14:54:26.520Z,46.33
2022-11-20T14:56:59.853Z,49.83
2022-11-20T14:59:33.305Z,48.20
2022-11-20T15:02:11.724Z,51.00
2022-11-20T15:05:00.340Z,45.65
2022-11-20T15:07:38.572Z,51.35
2022-11-20T15:10:32.665Z,49.50
2022-11-20T15:13:13.040Z,48.05
2022-11-20T15:15:53.528Z,51.10
2022-11-20T15:18:33.647Z,53.95
2022-11-20T15:21:07.299Z,50.25
2022-11-20T15:23:35.635Z,55.17
2022-11-20T15:26:02.913Z,56.13
2022-11-20T15:28:51.312Z,58.15
2022-11-20T15:31:24.480Z,55.92
2022-11-20T15:33:52.346Z,58.80
2022-11-20T15:36:19.615Z,56.65
2022-11-20T15:38:47.594Z,59.20
2022-11-20T15:41:17.258Z,56.03
2022-11-20T15:43:44.970Z,57.05
2022-11-20T15:46:22.668Z,57.90
2022-11-20T15:48:56.308Z,58.38
2022-11-20T15:51:38.050Z,60.47
2022-11-20T15:54:22.490Z,60.45
2022-11-20T15:56:53.483Z,64.38
2022-11-20T15:59:21.577Z,62.28
2022-11-20T16:01:48.871Z,64.82
2022-11-20T16:04:19.370Z,64.00
2022-11-20T16:06:46.719Z,61.60
2022-11-20T16:09:14.312Z,65.75
2022-11-20T16:11:41.606Z,62.15
2022-11-20T16:14:30.426Z,60.50
2022-11-20T16:16:57.617Z,58.63
2022-11-20T16:19:25.085Z,60.38
2022-11-20T16:21:52.441Z,60.60
2022-11-20T16:24:20.557Z,61.10
2022-11-20T16:26:48.035Z,63.03
2022-11-20T16:29:16.033Z,61.90
2022-11-20T16:31:43.254Z,64.95
2022-11-20T16:34:12.509Z,66.53
2022-11-20T16:36:45.889Z,61.63
2022-11-20T16:39:19.036Z,62.58
2022-11-20T16:41:49.373Z,63.58
2022-11-20T16:44:17.076Z,59.13
2022-11-20T16:46:46.246Z,56.17
2022-11-20T16:49:15.333Z,54.30
2022-11-20T16:51:43.252Z,57.42
2022-11-20T16:54:13.950Z,56.05
2022-11-20T16:56:43.884Z,55.47
2022-11-20T16:59:11.696Z,54.28
2022-11-20T17:01:40.561Z,52.97
2022-11-20T17:04:08.329Z,52.97
2022-11-20T17:06:40.452Z,52.07
2022-11-20T17:09:11.183Z,51.53
2022-11-20T17:11:38.798Z,51.92
2022-11-20T17:14:09.907Z,53.65
2022-11-20T17:16:38.396Z,47.25
2022-11-20T17:19:06.467Z,47.28
2022-11-20T17:21:39.419Z,46.55
2022-11-20T17:24:13.255Z,49.72
2022-11-20T17:26:43.294Z,47.15
2022-11-20T17:29:17.499Z,47.25
2022-11-20T17:31:45.539Z,44.37
2022-11-20T17:34:15.808Z,44.90
2022-11-20T17:36:47.159Z,43.40
2022-11-20T17:39:17.080Z,44.13
2022-11-20T17:41:45.129Z,42.42
2022-11-20T17:44:13.549Z,42.83
2022-11-20T17:46:41.253Z,42.20
2022-11-20T17:49:08.893Z,41.17
2022-11-20T17:51:36.246Z,40.47
2022-11-20T17:54:09.511Z,40.92
2022-11-20T17:56:55.624Z,39.05
2022-11-20T17:59:23.420Z,40.93
2022-11-20T18:01:50.795Z,41.90
2022-11-20T18:04:18.608Z,40.17
2022-11-20T18:06:46.335Z,41.83
2022-11-20T18:09:13.958Z,40.90
2022-11-20T18:11:43.060Z,41.37
2022-11-20T18:14:28.950Z,40.53
2022-11-20T18:17:09.548Z,41.42
2022-11-20T18:19:51.612Z,44.27
2022-11-20T18:22:23.513Z,42.37
2022-11-20T18:24:50.983Z,43.23
2022-11-20T18:27:21.930Z,44.33
2022-11-20T18:29:52.101Z,41.90
2022-11-20T18:32:21.978Z,42.00
2022-11-20T18:34:51.482Z,41.17
2022-11-20T18:37:19.691Z,42.30
2022-11-20T18:39:47.390Z,42.08
2022-11-20T18:42:35.570Z,40.90
2022-11-20T18:45:05.148Z,41.17
2022-11-20T18:47:37.630Z,42.77
2022-11-20T18:50:08.668Z,41.13
2022-11-20T18:52:44.641Z,42.70
2022-11-20T18:55:12.968Z,41.30
2022-11-20T18:57:40.351Z,42.27
2022-11-20T19:00:09.916Z,43.20
2022-11-20T19:02:42.222Z,42.30
2022-11-20T19:05:15.227Z,40.73
2022-11-20T19:07:43.383Z,39.97
2022-11-20T19:10:11.276Z,39.50
2022-11-20T19:12:38.944Z,34.57
2022-11-20T19:15:07.221Z,36.20
2022-11-20T19:17:34.748Z,37.00
2022-11-20T19:20:02.323Z,35.03
2022-11-20T19:22:29.767Z,35.17
2022-11-20T19:24:57.341Z,34.40
2022-11-20T19:27:24.567Z,33.73
2022-11-20T19:29:52.259Z,36.30
2022-11-20T19:32:19.806Z,34.70
2022-11-20T19:34:47.445Z,35.65
2022-11-20T19:37:14.896Z,37.57
2022-11-20T19:39:42.483Z,37.80
2022-11-20T19:42:09.763Z,40.37
2022-11-20T19:44:37.389Z,41.00
2022-11-20T19:47:08.909Z,39.67
2022-11-20T19:49:41.877Z,39.60
2022-11-20T19:52:09.493Z,40.77
2022-11-20T19:54:37.184Z,40.70
2022-11-20T19:57:04.400Z,42.20
2022-11-20T19:59:32.071Z,39.63
2022-11-20T20:01:59.537Z,37.20
2022-11-20T20:04:27.611Z,38.00
2022-11-20T20:06:55.099Z,38.17
2022-11-20T20:09:24.015Z,39.45
2022-11-20T20:11:51.411Z,39.40
2022-11-20T20:14:19.318Z,38.33
2022-11-20T20:16:46.750Z,42.80
2022-11-20T20:19:16.555Z,44.60
2022-11-20T20:21:44.490Z,43.53
2022-11-20T20:24:12.610Z,43.37
2022-11-20T20:26:40.202Z,43.65
2022-11-20T20:29:08.227Z,41.47
2022-11-20T20:31:36.208Z,39.83
2022-11-20T20:34:05.529Z,39.10
2022-11-20T20:36:33.330Z,36.20
2022-11-20T20:39:02.833Z,37.83
2022-11-20T20:41:30.657Z,35.03
2022-11-20T20:44:16.731Z,35.63
2022-11-20T20:46:43.977Z,33.33
2022-11-20T20:49:11.559Z,33.70
2022-11-20T20:51:38.798Z,33.73
2022-11-20T20:54:06.550Z,33.63
2022-11-20T20:56:33.958Z,32.57
2022-11-20T20:59:01.709Z,33.47
2022-11-20T21:01:29.724Z,33.93
2022-11-20T21:03:57.811Z,32.30
2022-11-20T21:06:25.796Z,32.45
2022-11-20T21:08:53.735Z,30.23
2022-11-20T21:11:21.661Z,27.17
2022-11-20T21:13:49.886Z,35.17
2022-11-20T21:16:20.622Z,34.42
2022-11-20T21:18:48.839Z,36.35
2022-11-20T21:21:36.395Z,34.13
2022-11-20T21:24:04.468Z,36.23
2022-11-20T21:26:31.821Z,35.53
2022-11-20T21:28:59.530Z,34.85
2022-11-20T21:31:28.798Z,36.75
2022-11-20T21:33:57.426Z,38.47
2022-11-20T21:36:28.841Z,36.80
2022-11-20T21:38:59.519Z,38.67
2022-11-20T21:41:30.284Z,38.10
2022-11-20T21:46:47.826Z,37.80
2022-11-20T21:49:16.968Z,38.60
2022-11-20T21:51:44.234Z,37.28
2022-11-20T21:54:11.864Z,37.00
2022-11-20T21:56:39.368Z,34.65
2022-11-20T21:59:06.856Z,36.38
2022-11-20T22:01:34.889Z,39.00
2022-11-20T22:04:03.246Z,35.30
2022-11-20T22:06:33.662Z,35.80
2022-11-20T22:09:02.833Z,36.72
2022-11-20T22:11:30.500Z,37.28
2022-11-20T22:14:16.966Z,36.88
2022-11-20T22:16:44.180Z,36.50
2022-11-20T22:19:12.139Z,35.35
2022-11-20T22:21:40.693Z,37.65
2022-11-20T22:24:12.610Z,37.17
2022-11-20T22:26:40.825Z,39.35
2022-11-20T22:29:14.844Z,36.17
2022-11-20T22:31:42.503Z,36.53
2022-11-20T22:34:13.107Z,34.00
2022-11-20T22:36:41.271Z,33.63
2022-11-20T22:39:09.201Z,32.10
2022-11-20T22:41:36.403Z,32.30
2022-11-20T22:44:08.801Z,30.95
2022-11-20T22:46:38.491Z,33.63
2022-11-20T22:49:11.025Z,32.75
2022-11-20T22:51:41.362Z,34.22
2022-11-20T22:54:12.348Z,33.70
2022-11-20T22:56:40.658Z,31.88
2022-11-20T22:59:08.249Z,33.15
2022-11-20T23:01:37.324Z,30.50
2022-11-20T23:04:10.234Z,29.25
2022-11-20T23:06:37.628Z,29.90
2022-11-20T23:09:06.657Z,30.15
2022-11-20T23:11:35.339Z,31.67
2022-11-20T23:14:12.775Z,32.47
2022-11-20T23:16:40.459Z,31.20
2022-11-20T23:19:11.760Z,31.40
2022-11-20T23:21:41.539Z,31.90
2022-11-20T23:24:10.161Z,32.58
2022-11-20T23:26:40.668Z,31.43
2022-11-20T23:29:08.849Z,31.08
2022-11-20T23:31:36.657Z,31.52
2022-11-20T23:34:04.863Z,32.90
2022-11-20T23:36:32.454Z,32.45
2022-11-20T23:38:59.948Z,30.20
2022-11-20T23:41:27.280Z,31.70
2022-11-20T23:43:55.151Z,31.47
2022-11-20T23:46:22.699Z,33.58
2022-11-20T23:48:50.135Z,30.60
2022-11-20T23:51:18.107Z,30.30
2022-11-20T23:53:45.822Z,31.75
2022-11-20T23:56:16.187Z,31.30
2022-11-20T23:58:43.966Z,31.15
